Time,TemperatureF,DewpointF,PressureIn,WindDirection,WindDirectionDegrees,WindSpeedMPH,WindSpeedGustMPH,Humidity,HourlyPrecipIn,Conditions,Clouds,dailyrainin,SoftwareType,DateUTC
2014-02-19 00:09:00,47.8,35.0,29.99,NW,315,0.0,-999.0,61,-99.99,,,0.00,Acu-Link.com,2014-02-19 05:09:00,
2014-02-19 00:24:00,47.8,35.4,29.99,NW,315,0.0,-999.0,62,-99.99,,,0.00,Acu-Link.com,2014-02-19 05:24:00,
2014-02-19 00:40:00,47.7,35.3,29.98,ESE,112,0.0,-999.0,62,-99.99,,,0.00,Acu-Link.com,2014-02-19 05:40:00,
2014-02-19 00:55:00,47.1,35.6,29.98,ESE,112,0.0,-999.0,64,-99.99,,,0.00,Acu-Link.com,2014-02-19 05:55:00,
2014-02-19 01:10:00,47.1,34.4,29.98,NNW,337,2.2,-999.0,61,-99.99,,,0.00,Acu-Link.com,2014-02-19 06:10:00,
2014-02-19 01:25:00,47.5,35.5,29.98,NW,315,1.7,-999.0,63,-99.99,,,0.00,Acu-Link.com,2014-02-19 06:25:00,
2014-02-19 01:40:00,47.5,35.9,29.97,WNW,292,2.2,-999.0,64,-99.99,,,0.00,Acu-Link.com,2014-02-19 06:40:00,
2014-02-19 01:55:00,51.6,45.3,29.97,WSW,247,3.2,-999.0,79,-99.99,,,0.00,Acu-Link.com,2014-02-19 06:55:00,
2014-02-19 02:10:00,56.1,48.6,29.96,SSW,202,2.7,-999.0,76,-99.99,,,0.00,Acu-Link.com,2014-02-19 07:10:00,
2014-02-19 02:25:00,55.9,48.1,29.95,NW,315,3.7,-999.0,75,-99.99,,,0.00,Acu-Link.com,2014-02-19 07:25:00,
2014-02-19 02:40:00,55.9,49.1,29.94,SW,225,2.7,-999.0,78,-99.99,,,0.00,Acu-Link.com,2014-02-19 07:40:00,
2014-02-19 02:56:00,56.3,49.5,29.93,WNW,292,2.2,-999.0,78,-99.99,,,0.00,Acu-Link.com,2014-02-19 07:56:00,
2014-02-19 03:11:00,57.7,51.6,29.93,SW,225,4.7,-999.0,80,-99.99,,,0.00,Acu-Link.com,2014-02-19 08:11:00,
2014-02-19 03:26:00,58.6,51.8,29.91,WSW,247,5.3,-999.0,78,-99.99,,,0.00,Acu-Link.com,2014-02-19 08:26:00,
2014-02-19 03:41:00,59.5,52.3,29.91,WSW,247,4.7,-999.0,77,-99.99,,,0.00,Acu-Link.com,2014-02-19 08:41:00,
2014-02-19 03:56:00,59.2,53.0,29.91,South,180,4.2,-999.0,80,-99.99,,,0.01,Acu-Link.com,2014-02-19 08:56:00,
2014-02-19 04:11:00,59.0,52.1,29.90,SSW,202,4.2,-999.0,78,-99.99,,,0.05,Acu-Link.com,2014-02-19 09:11:00,
2014-02-19 04:26:00,58.3,52.2,29.89,WSW,247,3.2,-999.0,80,-99.99,,,0.05,Acu-Link.com,2014-02-19 09:26:00,
2014-02-19 04:41:00,58.1,52.3,29.90,SW,225,6.3,-999.0,81,-99.99,,,0.05,Acu-Link.com,2014-02-19 09:41:00,
2014-02-19 04:56:00,58.5,53.0,29.89,SSW,202,3.7,-999.0,82,-99.99,,,0.05,Acu-Link.com,2014-02-19 09:56:00,
2014-02-19 05:12:00,59.0,53.2,29.88,SSW,202,3.7,-999.0,81,-99.99,,,0.05,Acu-Link.com,2014-02-19 10:12:00,
2014-02-19 05:27:00,59.2,53.4,29.89,West,270,2.7,-999.0,81,-99.99,,,0.05,Acu-Link.com,2014-02-19 10:27:00,
2014-02-19 05:42:00,59.2,53.0,29.91,SSW,202,3.7,-999.0,80,-99.99,,,0.05,Acu-Link.com,2014-02-19 10:42:00,
2014-02-19 05:57:00,59.9,53.4,29.92,SW,225,5.8,-999.0,79,-99.99,,,0.05,Acu-Link.com,2014-02-19 10:57:00,
2014-02-19 06:12:00,60.1,53.6,29.93,West,270,3.2,-999.0,79,-99.99,,,0.05,Acu-Link.com,2014-02-19 11:12:00,
2014-02-19 06:27:00,59.7,53.2,29.92,WSW,247,2.2,-999.0,79,-99.99,,,0.05,Acu-Link.com,2014-02-19 11:27:00,
2014-02-19 06:42:00,59.5,53.3,29.92,SW,225,2.7,-999.0,80,-99.99,,,0.05,Acu-Link.com,2014-02-19 11:42:00,
2014-02-19 06:57:00,59.5,53.3,29.93,North,0,5.3,-999.0,80,-99.99,,,0.06,Acu-Link.com,2014-02-19 11:57:00,
2014-02-19 07:12:00,58.8,53.3,29.94,SW,225,2.7,-999.0,82,-99.99,,,0.16,Acu-Link.com,2014-02-19 12:12:00,
2014-02-19 07:28:00,58.5,53.0,29.94,West,270,4.7,-999.0,82,-99.99,,,0.37,Acu-Link.com,2014-02-19 12:28:00,
2014-02-19 07:43:00,58.3,52.8,29.94,WSW,247,2.2,-999.0,82,-99.99,,,0.39,Acu-Link.com,2014-02-19 12:43:00,
2014-02-19 07:58:00,57.7,52.6,29.95,WNW,292,1.7,-999.0,83,-99.99,,,0.39,Acu-Link.com,2014-02-19 12:58:00,
2014-02-19 08:13:00,57.9,52.8,29.95,WSW,247,0.0,-999.0,83,-99.99,,,0.39,Acu-Link.com,2014-02-19 13:13:00,
2014-02-19 08:28:00,59.7,53.9,29.95,WSW,247,2.7,-999.0,81,-99.99,,,0.39,Acu-Link.com,2014-02-19 13:28:00,
2014-02-19 08:43:00,61.2,54.6,29.95,SSE,157,2.2,-999.0,79,-99.99,,,0.39,Acu-Link.com,2014-02-19 13:43:00,
2014-02-19 08:58:00,62.2,54.5,29.95,SW,225,2.7,-999.0,76,-99.99,,,0.39,Acu-Link.com,2014-02-19 13:58:00,
2014-02-19 09:13:00,63.9,54.3,29.97,South,180,3.7,-999.0,71,-99.99,,,0.39,Acu-Link.com,2014-02-19 14:13:00,
2014-02-19 09:28:00,65.1,53.5,29.95,SW,225,9.4,-999.0,66,-99.99,,,0.39,Acu-Link.com,2014-02-19 14:28:00,
2014-02-19 09:44:00,66.0,53.5,29.95,West,270,7.3,-999.0,64,-99.99,,,0.39,Acu-Link.com,2014-02-19 14:44:00,
2014-02-19 09:59:00,66.7,53.3,29.96,WSW,247,4.2,-999.0,62,-99.99,,,0.39,Acu-Link.com,2014-02-19 14:59:00,
2014-02-19 10:14:00,66.7,52.8,29.96,South,180,3.7,-999.0,61,-99.99,,,0.39,Acu-Link.com,2014-02-19 15:14:00,
2014-02-19 10:29:00,68.5,53.1,29.97,WNW,292,3.2,-999.0,58,-99.99,,,0.39,Acu-Link.com,2014-02-19 15:29:00,
2014-02-19 10:44:00,69.1,51.2,29.98,West,270,7.3,-999.0,53,-99.99,,,0.39,Acu-Link.com,2014-02-19 15:44:00,
2014-02-19 10:59:00,69.8,50.3,29.98,South,180,9.9,-999.0,50,-99.99,,,0.39,Acu-Link.com,2014-02-19 15:59:00,
2014-02-19 11:14:00,68.2,49.4,29.99,West,270,5.3,-999.0,51,-99.99,,,0.39,Acu-Link.com,2014-02-19 16:14:00,
2014-02-19 11:29:00,69.8,50.3,29.99,WSW,247,3.2,-999.0,50,-99.99,,,0.39,Acu-Link.com,2014-02-19 16:29:00,
2014-02-19 11:44:00,71.2,48.2,29.98,West,270,4.2,-999.0,44,-99.99,,,0.39,Acu-Link.com,2014-02-19 16:44:00,
2014-02-19 11:59:00,72.7,43.5,29.96,WNW,292,4.7,-999.0,35,-99.99,,,0.39,Acu-Link.com,2014-02-19 16:59:00,
2014-02-19 12:15:00,73.2,42.4,29.97,WNW,292,9.4,-999.0,33,-99.99,,,0.39,Acu-Link.com,2014-02-19 17:15:00,
2014-02-19 12:30:00,72.1,46.4,29.97,WSW,247,3.7,-999.0,40,-99.99,,,0.39,Acu-Link.com,2014-02-19 17:30:00,
2014-02-19 12:45:00,72.1,46.4,29.96,SSW,202,1.7,-999.0,40,-99.99,,,0.39,Acu-Link.com,2014-02-19 17:45:00,
2014-02-19 13:00:00,73.2,45.4,29.96,WNW,292,3.2,-999.0,37,-99.99,,,0.39,Acu-Link.com,2014-02-19 18:00:00,
2014-02-19 13:15:00,72.9,44.4,29.96,SW,225,3.2,-999.0,36,-99.99,,,0.39,Acu-Link.com,2014-02-19 18:15:00,
2014-02-19 13:30:00,71.6,43.2,29.96,SW,225,6.3,-999.0,36,-99.99,,,0.39,Acu-Link.com,2014-02-19 18:30:00,
2014-02-19 13:46:00,71.8,41.1,29.96,WSW,247,4.2,-999.0,33,-99.99,,,0.39,Acu-Link.com,2014-02-19 18:46:00,
2014-02-19 14:01:00,72.7,41.1,29.96,WSW,247,5.8,-999.0,32,-99.99,,,0.39,Acu-Link.com,2014-02-19 19:01:00,
2014-02-19 14:16:00,71.6,41.7,29.95,WNW,292,3.2,-999.0,34,-99.99,,,0.39,Acu-Link.com,2014-02-19 19:16:00,
2014-02-19 14:31:00,71.6,41.0,29.95,SW,225,4.7,-999.0,33,-99.99,,,0.39,Acu-Link.com,2014-02-19 19:31:00,
2014-02-19 14:46:00,71.4,40.8,29.95,WNW,292,3.2,-999.0,33,-99.99,,,0.39,Acu-Link.com,2014-02-19 19:46:00,
2014-02-19 15:01:00,71.2,42.9,29.95,West,270,2.2,-999.0,36,-99.99,,,0.39,Acu-Link.com,2014-02-19 20:01:00,
2014-02-19 15:16:00,72.1,42.2,29.94,NE,45,2.2,-999.0,34,-99.99,,,0.39,Acu-Link.com,2014-02-19 20:16:00,
2014-02-19 15:31:00,73.4,43.3,29.94,NNW,337,1.7,-999.0,34,-99.99,,,0.39,Acu-Link.com,2014-02-19 20:31:00,
2014-02-19 15:46:00,72.3,43.8,29.94,North,0,3.7,-999.0,36,-99.99,,,0.39,Acu-Link.com,2014-02-19 20:46:00,
2014-02-19 16:02:00,72.3,43.1,29.94,WNW,292,3.7,-999.0,35,-99.99,,,0.39,Acu-Link.com,2014-02-19 21:02:00,
2014-02-19 16:17:00,71.6,43.9,29.94,NW,315,3.7,-999.0,37,-99.99,,,0.39,Acu-Link.com,2014-02-19 21:17:00,
2014-02-19 16:32:00,71.1,43.5,29.96,WNW,292,3.7,-999.0,37,-99.99,,,0.39,Acu-Link.com,2014-02-19 21:32:00,
2014-02-19 16:47:00,70.7,43.8,29.96,WNW,292,3.7,-999.0,38,-99.99,,,0.39,Acu-Link.com,2014-02-19 21:47:00,
2014-02-19 17:02:00,70.5,43.0,29.96,West,270,1.7,-999.0,37,-99.99,,,0.39,Acu-Link.com,2014-02-19 22:02:00,
2014-02-19 17:17:00,71.1,43.5,29.96,West,270,0.0,-999.0,37,-99.99,,,0.39,Acu-Link.com,2014-02-19 22:17:00,
2014-02-19 17:33:00,70.0,43.9,29.96,West,270,0.0,-999.0,39,-99.99,,,0.39,Acu-Link.com,2014-02-19 22:33:00,
2014-02-19 17:48:00,68.7,44.7,29.97,WNW,292,0.0,-999.0,42,-99.99,,,0.39,Acu-Link.com,2014-02-19 22:48:00,
2014-02-19 18:03:00,67.3,44.0,29.98,NE,45,1.7,-999.0,43,-99.99,,,0.39,Acu-Link.com,2014-02-19 23:03:00,
2014-02-19 18:18:00,65.8,45.6,30.00,West,270,1.1,-999.0,48,-99.99,,,0.39,Acu-Link.com,2014-02-19 23:18:00,
2014-02-19 18:33:00,64.0,46.0,30.00,WNW,292,1.1,-999.0,52,-99.99,,,0.39,Acu-Link.com,2014-02-19 23:33:00,
2014-02-19 18:49:00,61.7,46.3,30.01,NW,315,2.2,-999.0,57,-99.99,,,0.39,Acu-Link.com,2014-02-19 23:49:00,
2014-02-19 19:04:00,60.8,45.9,30.01,SE,135,0.0,-999.0,58,-99.99,,,0.39,Acu-Link.com,2014-02-20 00:04:00,
2014-02-19 19:19:00,59.4,45.1,30.03,West,270,0.0,-999.0,59,-99.99,,,0.39,Acu-Link.com,2014-02-20 00:19:00,
2014-02-19 19:34:00,58.3,44.9,30.02,West,270,0.0,-999.0,61,-99.99,,,0.39,Acu-Link.com,2014-02-20 00:34:00,
2014-02-19 19:49:00,57.2,43.9,30.04,West,270,0.0,-999.0,61,-99.99,,,0.39,Acu-Link.com,2014-02-20 00:49:00,
2014-02-19 20:05:00,55.9,43.9,30.03,WNW,292,1.7,-999.0,64,-99.99,,,0.39,Acu-Link.com,2014-02-20 01:05:00,
2014-02-19 20:20:00,55.2,43.6,30.04,WNW,292,0.0,-999.0,65,-99.99,,,0.39,Acu-Link.com,2014-02-20 01:20:00,
2014-02-19 20:35:00,54.7,43.6,30.03,NNW,337,0.0,-999.0,66,-99.99,,,0.39,Acu-Link.com,2014-02-20 01:35:00,
2014-02-19 20:50:00,54.7,44.3,30.03,SSE,157,2.2,-999.0,68,-99.99,,,0.39,Acu-Link.com,2014-02-20 01:50:00,
2014-02-19 21:05:00,54.7,44.3,30.03,WNW,292,2.2,-999.0,68,-99.99,,,0.39,Acu-Link.com,2014-02-20 02:05:00,
2014-02-19 21:21:00,55.0,44.2,30.03,NNW,337,1.1,-999.0,67,-99.99,,,0.39,Acu-Link.com,2014-02-20 02:21:00,
2014-02-19 21:36:00,54.5,43.8,30.04,West,270,0.0,-999.0,67,-99.99,,,0.39,Acu-Link.com,2014-02-20 02:36:00,
2014-02-19 21:51:00,53.6,43.3,30.04,SW,225,0.0,-999.0,68,-99.99,,,0.39,Acu-Link.com,2014-02-20 02:51:00,
2014-02-19 22:06:00,52.7,43.2,30.04,West,270,1.1,-999.0,70,-99.99,,,0.39,Acu-Link.com,2014-02-20 03:06:00,
2014-02-19 22:21:00,52.3,43.2,30.04,WNW,292,0.0,-999.0,71,-99.99,,,0.39,Acu-Link.com,2014-02-20 03:21:00,
2014-02-19 22:36:00,52.2,43.4,30.04,North,0,0.0,-999.0,72,-99.99,,,0.39,Acu-Link.com,2014-02-20 03:36:00,
2014-02-19 22:51:00,51.3,42.9,30.04,West,270,1.7,-999.0,73,-99.99,,,0.39,Acu-Link.com,2014-02-20 03:51:00,
2014-02-19 23:06:00,50.9,42.6,30.03,NW,315,0.0,-999.0,73,-99.99,,,0.39,Acu-Link.com,2014-02-20 04:06:00,
2014-02-19 23:22:00,50.5,42.5,30.03,East,90,0.0,-999.0,74,-99.99,,,0.39,Acu-Link.com,2014-02-20 04:22:00,
2014-02-19 23:37:00,49.3,42.1,30.03,WNW,292,2.2,-999.0,76,-99.99,,,0.39,Acu-Link.com,2014-02-20 04:37:00,
2014-02-19 23:52:00,48.7,42.8,30.03,WNW,292,1.7,-999.0,80,-99.99,,,0.39,Acu-Link.com,2014-02-20 04:52:00,